createdAt,value
2018-06-03T00:02:03.452Z,16.60
2018-06-03T00:04:30.956Z,16.60
2018-06-03T00:06:58.422Z,16.50
2018-06-03T00:09:25.912Z,16.50
2018-06-03T00:11:53.369Z,16.60
2018-06-03T00:14:20.864Z,16.60
2018-06-03T00:16:49.097Z,16.70
2018-06-03T00:19:16.559Z,16.60
2018-06-03T00:21:44.307Z,16.60
2018-06-03T00:24:11.781Z,16.60
2018-06-03T00:26:39.244Z,16.60
2018-06-03T00:29:06.874Z,16.60
2018-06-03T00:31:34.381Z,16.60
2018-06-03T00:34:01.853Z,16.50
2018-06-03T00:36:41.926Z,16.50
2018-06-03T00:39:09.397Z,16.40
2018-06-03T00:41:36.860Z,16.40
2018-06-03T00:44:04.453Z,16.40
2018-06-03T00:46:31.917Z,16.40
2018-06-03T00:48:59.382Z,16.50
2018-06-03T00:51:27.854Z,16.40
2018-06-03T00:53:55.324Z,16.40
2018-06-03T00:56:35.525Z,16.40
2018-06-03T00:59:02.997Z,16.40
2018-06-03T01:01:30.468Z,16.40
2018-06-03T01:03:58.143Z,16.50
2018-06-03T01:06:26.540Z,16.50
2018-06-03T01:08:54.029Z,16.50
2018-06-03T01:11:21.513Z,16.50
2018-06-03T01:13:48.987Z,16.50
2018-06-03T01:16:16.484Z,16.50
2018-06-03T01:18:43.958Z,16.60
2018-06-03T01:21:11.425Z,16.60
2018-06-03T01:23:38.900Z,16.60
2018-06-03T01:26:06.375Z,16.60
2018-06-03T01:28:34.608Z,16.60
2018-06-03T01:31:02.319Z,16.60
2018-06-03T01:33:30.548Z,16.60
2018-06-03T01:35:58.026Z,16.60
2018-06-03T01:38:26.350Z,16.60
2018-06-03T01:40:53.809Z,16.60
2018-06-03T01:43:21.277Z,16.60
2018-06-03T01:45:48.783Z,16.50
2018-06-03T01:48:16.247Z,16.50
2018-06-03T01:50:43.713Z,16.50
2018-06-03T01:53:12.113Z,16.40
2018-06-03T01:55:39.578Z,16.40
2018-06-03T01:58:07.036Z,16.40
2018-06-03T02:00:34.550Z,16.50
2018-06-03T02:03:02.098Z,16.50
2018-06-03T02:05:29.762Z,16.40
2018-06-03T02:07:57.373Z,16.50
2018-06-03T02:10:24.834Z,16.50
2018-06-03T02:12:52.316Z,16.50
2018-06-03T02:15:19.854Z,16.60
2018-06-03T02:17:47.317Z,16.60
2018-06-03T02:20:15.025Z,16.60
2018-06-03T02:22:43.250Z,16.60
2018-06-03T02:25:10.710Z,16.60
2018-06-03T02:27:38.184Z,16.60
2018-06-03T02:30:05.654Z,16.50
2018-06-03T02:32:33.117Z,16.50
2018-06-03T02:35:00.782Z,16.50
2018-06-03T02:37:28.246Z,16.50
2018-06-03T02:39:56.485Z,16.50
2018-06-03T02:42:23.977Z,16.50
2018-06-03T02:44:52.215Z,16.50
2018-06-03T02:47:19.693Z,16.50
2018-06-03T02:49:47.192Z,16.50
2018-06-03T02:52:14.656Z,16.50
2018-06-03T02:54:42.113Z,16.40
2018-06-03T02:57:09.818Z,16.40
2018-06-03T02:59:37.284Z,16.40
2018-06-03T03:02:04.838Z,16.40
2018-06-03T03:04:32.481Z,16.40
2018-06-03T03:06:59.952Z,16.50
2018-06-03T03:09:27.409Z,16.50
2018-06-03T03:11:55.076Z,16.50
2018-06-03T03:14:22.629Z,16.50
2018-06-03T03:16:50.098Z,16.50
2018-06-03T03:19:17.848Z,16.50
2018-06-03T03:21:45.314Z,16.50
2018-06-03T03:24:14.289Z,16.50
2018-06-03T03:26:41.929Z,16.50
2018-06-03T03:29:09.404Z,16.60
2018-06-03T03:31:36.886Z,16.50
2018-06-03T03:34:05.272Z,16.50
2018-06-03T03:36:33.499Z,16.50
2018-06-03T03:39:00.962Z,16.50
2018-06-03T03:41:28.649Z,16.50
2018-06-03T03:43:57.617Z,16.50
2018-06-03T03:46:25.094Z,16.50
2018-06-03T03:48:52.568Z,16.50
2018-06-03T03:51:20.804Z,16.50
2018-06-03T03:53:48.485Z,16.50
2018-06-03T03:56:16.032Z,16.50
2018-06-03T03:58:43.496Z,16.50
2018-06-03T04:01:11.133Z,16.50
2018-06-03T04:03:38.612Z,16.50
2018-06-03T04:06:06.074Z,16.50
2018-06-03T04:08:33.574Z,16.50
2018-06-03T04:11:01.793Z,16.60
2018-06-03T04:13:29.465Z,16.60
2018-06-03T04:15:56.938Z,16.60
2018-06-03T04:18:25.174Z,16.60
2018-06-03T04:20:52.804Z,16.60
2018-06-03T04:23:20.282Z,16.60
2018-06-03T04:25:47.746Z,16.70
2018-06-03T04:28:15.225Z,16.70
2018-06-03T04:30:42.693Z,16.70
2018-06-03T04:33:10.925Z,16.80
2018-06-03T04:35:38.632Z,16.80
2018-06-03T04:38:06.098Z,16.80
2018-06-03T04:40:34.328Z,16.90
2018-06-03T04:43:01.810Z,16.90
2018-06-03T04:45:29.315Z,16.90
2018-06-03T04:47:56.786Z,16.90
2018-06-03T04:50:24.410Z,17.00
2018-06-03T04:52:52.636Z,17.00
2018-06-03T04:55:20.100Z,17.10
2018-06-03T04:57:47.776Z,17.10
2018-06-03T05:00:15.252Z,17.10
2018-06-03T05:02:43.496Z,17.20
2018-06-03T05:05:10.977Z,17.20
2018-06-03T05:07:39.216Z,17.20
2018-06-03T05:10:06.690Z,17.20
2018-06-03T05:12:35.054Z,17.30
2018-06-03T05:15:02.520Z,17.30
2018-06-03T05:17:29.985Z,17.30
2018-06-03T05:19:57.471Z,17.30
2018-06-03T05:22:24.938Z,17.30
2018-06-03T05:24:52.413Z,17.40
2018-06-03T05:27:19.889Z,17.40
2018-06-03T05:29:47.355Z,17.40
2018-06-03T05:32:14.818Z,17.40
2018-06-03T05:34:42.405Z,17.50
2018-06-03T05:37:10.641Z,17.50
2018-06-03T05:39:38.113Z,17.50
2018-06-03T05:42:05.773Z,17.60
2018-06-03T05:44:34.011Z,17.70
2018-06-03T05:47:01.460Z,17.70
2018-06-03T05:49:29.167Z,17.70
2018-06-03T05:51:56.637Z,17.80
2018-06-03T05:54:24.885Z,18.00
2018-06-03T05:56:52.559Z,18.00
2018-06-03T05:59:20.025Z,18.20
2018-06-03T06:01:47.499Z,18.30
2018-06-03T06:04:15.736Z,18.30
2018-06-03T06:06:43.205Z,18.40
2018-06-03T06:09:10.865Z,18.40
2018-06-03T06:11:38.352Z,18.50
2018-06-03T06:14:06.584Z,18.60
2018-06-03T06:16:35.737Z,18.70
2018-06-03T06:19:03.224Z,18.70
2018-06-03T06:21:30.692Z,18.70
2018-06-03T06:23:58.364Z,18.90
2018-06-03T06:26:25.829Z,19.00
2018-06-03T06:28:54.068Z,19.20
2018-06-03T06:31:21.715Z,19.20
2018-06-03T06:33:49.221Z,19.40
2018-06-03T06:36:17.452Z,19.90
2018-06-03T06:38:44.952Z,19.80
2018-06-03T06:41:12.413Z,20.00
2018-06-03T06:43:40.657Z,20.00
2018-06-03T06:46:08.197Z,20.00
2018-06-03T06:48:35.669Z,20.10
2018-06-03T06:51:03.141Z,19.90
2018-06-03T06:53:30.630Z,19.90
2018-06-03T06:55:58.885Z,19.90
2018-06-03T06:58:26.349Z,19.90
2018-06-03T07:00:54.760Z,20.00
2018-06-03T07:03:22.221Z,20.00
2018-06-03T07:05:49.875Z,20.10
2018-06-03T07:08:17.393Z,20.30
2018-06-03T07:10:44.864Z,20.40
2018-06-03T07:13:13.164Z,20.40
2018-06-03T07:15:40.594Z,20.40
2018-06-03T07:18:08.052Z,20.40
2018-06-03T07:20:36.285Z,20.40
2018-06-03T07:23:03.781Z,20.30
2018-06-03T07:25:31.237Z,20.40
2018-06-03T07:27:59.505Z,20.20
2018-06-03T07:30:26.969Z,20.20
2018-06-03T07:32:54.645Z,20.20
2018-06-03T07:35:22.878Z,19.90
2018-06-03T07:37:50.345Z,19.90
2018-06-03T07:40:18.043Z,19.90
2018-06-03T07:42:46.269Z,19.80
2018-06-03T07:45:13.732Z,19.80
2018-06-03T07:47:41.429Z,19.80
2018-06-03T07:50:09.661Z,19.80
2018-06-03T07:52:37.129Z,19.80
2018-06-03T07:55:04.732Z,19.90
2018-06-03T07:57:32.956Z,20.30
2018-06-03T08:00:00.438Z,20.30
2018-06-03T08:02:27.930Z,20.40
2018-06-03T08:04:55.394Z,20.40
2018-06-03T08:07:22.866Z,20.40
2018-06-03T08:09:50.553Z,20.40
2018-06-03T08:12:18.018Z,20.40
2018-06-03T08:14:46.298Z,20.70
2018-06-03T08:17:13.793Z,20.70
2018-06-03T08:19:41.274Z,20.60
2018-06-03T08:22:08.788Z,20.70
2018-06-03T08:24:37.123Z,20.90
2018-06-03T08:27:05.973Z,21.20
2018-06-03T08:29:34.690Z,21.30
2018-06-03T08:32:02.157Z,21.30
2018-06-03T08:34:29.866Z,21.60
2018-06-03T08:36:57.363Z,21.60
2018-06-03T08:39:24.854Z,21.80
2018-06-03T08:41:52.328Z,22.00
2018-06-03T08:44:20.573Z,21.90
2018-06-03T08:46:48.037Z,21.90
2018-06-03T08:49:15.705Z,22.00
2018-06-03T08:51:43.170Z,22.10
2018-06-03T08:54:11.401Z,22.40
2018-06-03T08:56:39.097Z,22.30
2018-06-03T08:59:06.737Z,22.10
2018-06-03T09:01:34.311Z,22.20
2018-06-03T09:04:01.973Z,22.20
2018-06-03T09:06:29.452Z,22.30
2018-06-03T09:08:57.747Z,22.40
2018-06-03T09:11:25.426Z,22.40
2018-06-03T09:13:52.901Z,22.40
2018-06-03T09:16:20.371Z,22.70
2018-06-03T09:18:49.369Z,23.10
2018-06-03T09:21:16.828Z,23.10
2018-06-03T09:23:44.306Z,23.50
2018-06-03T09:26:12.581Z,24.50
2018-06-03T09:28:40.822Z,24.50
2018-06-03T09:31:08.288Z,24.50
2018-06-03T09:33:35.959Z,24.00
2018-06-03T09:36:03.424Z,24.00
2018-06-03T09:38:31.656Z,23.50
2018-06-03T09:40:59.325Z,23.50
2018-06-03T09:43:26.797Z,23.70
2018-06-03T09:45:54.291Z,23.90
2018-06-03T09:48:21.778Z,24.20
2018-06-03T09:50:49.261Z,24.40
2018-06-03T09:53:16.737Z,24.60
2018-06-03T09:55:44.212Z,24.60
2018-06-03T09:58:11.773Z,24.90
2018-06-03T10:00:39.238Z,25.60
2018-06-03T10:03:06.957Z,27.10
2018-06-03T10:05:35.208Z,29.60
2018-06-03T10:08:03.497Z,30.30
2018-06-03T10:10:31.172Z,30.20
2018-06-03T10:12:58.657Z,30.40
2018-06-03T10:15:26.879Z,30.30
2018-06-03T10:17:54.356Z,30.30
2018-06-03T10:20:21.838Z,29.90
2018-06-03T10:22:50.073Z,30.80
2018-06-03T10:25:17.595Z,30.80
2018-06-03T10:27:45.061Z,30.90
2018-06-03T10:30:12.593Z,30.10
2018-06-03T10:32:40.077Z,29.50
2018-06-03T10:35:07.560Z,28.80
2018-06-03T10:37:35.240Z,28.80
2018-06-03T10:40:02.732Z,29.30
2018-06-03T10:42:30.198Z,29.90
2018-06-03T10:45:26.438Z,29.20
2018-06-03T10:47:54.972Z,29.50
2018-06-03T10:50:23.397Z,31.00
2018-06-03T10:52:51.816Z,31.10
2018-06-03T10:55:20.212Z,31.00
2018-06-03T10:57:48.742Z,31.30
2018-06-03T11:00:17.369Z,31.40
2018-06-03T11:02:45.805Z,31.40
2018-06-03T11:05:14.841Z,30.40
2018-06-03T11:07:43.341Z,30.00
2018-06-03T11:10:11.746Z,30.40
2018-06-03T11:12:40.168Z,30.40
2018-06-03T11:15:08.652Z,30.70
2018-06-03T11:17:38.410Z,30.80
2018-06-03T11:20:06.900Z,30.70
2018-06-03T11:22:35.398Z,30.50
2018-06-03T11:25:04.348Z,30.50
2018-06-03T11:27:32.837Z,29.20
2018-06-03T11:30:01.277Z,28.60
2018-06-03T11:32:29.682Z,27.50
2018-06-03T11:34:58.183Z,27.00
2018-06-03T11:37:26.626Z,26.20
2018-06-03T11:39:55.045Z,25.60
2018-06-03T11:42:23.587Z,25.30
2018-06-03T11:44:52.021Z,25.30
2018-06-03T11:47:20.445Z,25.60
2018-06-03T11:49:48.845Z,26.20
2018-06-03T11:52:17.297Z,26.80
2018-06-03T11:59:34.334Z,26.80
2018-06-03T12:02:02.741Z,26.60
2018-06-03T12:04:31.154Z,26.40
2018-06-03T12:06:59.923Z,26.00
2018-06-03T12:09:28.417Z,25.70
2018-06-03T12:11:56.836Z,25.90
2018-06-03T12:14:25.401Z,26.50
2018-06-03T12:16:53.881Z,27.40
2018-06-03T12:19:22.281Z,28.50
2018-06-03T12:21:50.710Z,29.80
2018-06-03T12:24:19.268Z,30.60
2018-06-03T12:26:47.809Z,31.20
2018-06-03T12:29:16.274Z,31.70
2018-06-03T12:31:44.720Z,31.40
2018-06-03T12:34:13.175Z,30.90
2018-06-03T12:36:41.591Z,31.20
2018-06-03T12:39:10.242Z,31.30
2018-06-03T12:41:38.941Z,30.80
2018-06-03T12:44:07.385Z,30.20
2018-06-03T12:46:35.801Z,29.70
2018-06-03T12:49:04.301Z,29.80
2018-06-03T12:51:32.764Z,30.00
2018-06-03T12:54:01.252Z,29.50
2018-06-03T12:56:29.682Z,29.40
2018-06-03T12:58:58.081Z,28.90
2018-06-03T13:01:26.599Z,28.60
2018-06-03T13:03:55.021Z,28.20
2018-06-03T13:06:23.452Z,27.90
2018-06-03T13:08:52.637Z,27.20
2018-06-03T13:11:21.298Z,26.60
2018-06-03T13:13:49.721Z,26.20
2018-06-03T13:16:18.291Z,26.00
2018-06-03T13:18:46.717Z,26.10
2018-06-03T13:21:15.168Z,27.00
2018-06-03T13:23:43.640Z,27.20
2018-06-03T13:26:12.046Z,27.10
2018-06-03T13:28:40.457Z,27.30
2018-06-03T13:33:36.992Z,27.20
2018-06-03T13:36:05.833Z,27.00
2018-06-03T13:38:34.258Z,26.60
2018-06-03T13:41:02.809Z,26.90
2018-06-03T13:43:31.294Z,27.30
2018-06-03T13:45:59.681Z,27.50
2018-06-03T13:48:28.137Z,27.70
2018-06-03T13:50:56.524Z,27.60
2018-06-03T13:53:25.011Z,27.50
2018-06-03T13:55:53.436Z,27.50
2018-06-03T14:00:50.033Z,27.20
2018-06-03T14:03:18.450Z,27.20
2018-06-03T14:05:46.875Z,26.70
2018-06-03T14:08:15.302Z,26.30
2018-06-03T14:10:43.753Z,26.10
2018-06-03T14:13:12.196Z,25.80
2018-06-03T14:18:08.795Z,25.50
2018-06-03T14:20:37.223Z,25.30
2018-06-03T14:23:05.881Z,25.10
2018-06-03T14:25:34.291Z,25.10
2018-06-03T14:30:31.141Z,25.30
2018-06-03T14:32:59.565Z,25.70
2018-06-03T14:35:28.019Z,26.20
2018-06-03T14:37:56.669Z,26.70
2018-06-03T14:40:25.157Z,27.10
2018-06-03T14:42:53.577Z,27.20
2018-06-03T14:45:22.229Z,26.80
2018-06-03T14:47:50.639Z,26.40
2018-06-03T14:50:19.048Z,26.20
2018-06-03T14:52:47.767Z,26.10
2018-06-03T14:55:16.195Z,25.80
2018-06-03T14:57:44.631Z,25.50
2018-06-03T15:00:13.157Z,25.40
2018-06-03T15:02:41.570Z,25.20
2018-06-03T15:05:09.981Z,25.00
2018-06-03T15:07:38.686Z,24.90
2018-06-03T15:10:07.127Z,24.90
2018-06-03T15:12:35.541Z,24.90
2018-06-03T15:15:04.223Z,24.90
2018-06-03T15:17:32.760Z,24.90
2018-06-03T15:20:01.188Z,24.90
2018-06-03T15:22:29.652Z,24.90
2018-06-03T15:24:58.064Z,25.10
2018-06-03T15:27:26.466Z,25.30
2018-06-03T15:29:54.962Z,25.30
2018-06-03T15:32:23.398Z,25.50
2018-06-03T15:34:52.037Z,25.60
2018-06-03T15:37:20.510Z,25.70
2018-06-03T15:39:49.033Z,25.50
2018-06-03T15:42:17.512Z,25.40
2018-06-03T15:44:46.041Z,25.60
2018-06-03T15:47:14.490Z,25.70
2018-06-03T15:49:42.937Z,25.70
2018-06-03T15:52:11.397Z,25.80
2018-06-03T15:54:40.094Z,26.00
2018-06-03T15:57:08.645Z,26.00
2018-06-03T15:59:37.109Z,26.10
2018-06-03T16:02:06.348Z,25.90
2018-06-03T16:04:34.762Z,26.00
2018-06-03T16:07:03.231Z,25.80
2018-06-03T16:09:31.648Z,25.80
2018-06-03T16:12:00.045Z,25.70
2018-06-03T16:14:28.474Z,25.80
2018-06-03T16:19:25.149Z,25.70
2018-06-03T16:21:53.609Z,25.70
2018-06-03T16:26:50.165Z,25.60
2018-06-03T16:29:18.696Z,25.70
2018-06-03T16:31:47.144Z,25.70
2018-06-03T16:34:15.610Z,25.80
2018-06-03T16:36:44.237Z,25.80
2018-06-03T16:39:12.678Z,25.80
2018-06-03T16:41:41.241Z,25.80
2018-06-03T16:44:09.668Z,25.70
2018-06-03T16:46:38.127Z,25.50
2018-06-03T16:49:06.588Z,25.40
2018-06-03T16:51:34.989Z,25.40
2018-06-03T16:54:03.412Z,25.50
2018-06-03T16:56:31.792Z,25.50
2018-06-03T17:01:36.118Z,25.50
2018-06-03T17:04:04.546Z,25.30
2018-06-03T17:06:33.045Z,25.40
2018-06-03T17:09:01.490Z,25.50
2018-06-03T17:11:30.043Z,25.40
2018-06-03T17:13:58.506Z,25.30
2018-06-03T17:16:27.952Z,25.40
2018-06-03T17:18:57.048Z,25.20
2018-06-03T17:21:25.941Z,25.10
2018-06-03T17:23:55.117Z,25.10
2018-06-03T17:26:24.147Z,25.00
2018-06-03T17:28:53.499Z,24.90
2018-06-03T17:31:22.476Z,25.00
2018-06-03T17:33:51.406Z,25.00
2018-06-03T17:36:20.509Z,25.00
2018-06-03T17:38:49.403Z,24.90
2018-06-03T17:41:18.419Z,24.90
2018-06-03T17:43:47.535Z,24.80
2018-06-03T17:46:16.339Z,24.70
2018-06-03T17:48:45.325Z,24.70
2018-06-03T17:51:14.057Z,24.60
2018-06-03T17:53:43.282Z,24.60
2018-06-03T17:56:11.764Z,24.60
2018-06-03T17:58:40.619Z,24.60
2018-06-03T18:01:09.395Z,24.50
2018-06-03T18:03:38.191Z,24.50
2018-06-03T18:06:06.706Z,24.40
2018-06-03T18:08:35.337Z,24.30
2018-06-03T18:11:03.780Z,24.30
2018-06-03T18:13:32.177Z,24.20
2018-06-03T18:16:00.746Z,24.20
2018-06-03T18:18:29.555Z,24.00
2018-06-03T18:20:57.981Z,23.90
2018-06-03T18:23:26.462Z,23.80
2018-06-03T18:25:55.182Z,23.80
2018-06-03T18:28:23.619Z,23.80
2018-06-03T18:30:52.106Z,23.80
2018-06-03T18:33:20.802Z,23.70
2018-06-03T18:35:49.201Z,23.60
2018-06-03T18:38:17.915Z,23.60
2018-06-03T18:40:46.453Z,23.60
2018-06-03T18:43:14.893Z,23.50
2018-06-03T18:45:43.526Z,23.50
2018-06-03T18:48:11.923Z,23.40
2018-06-03T18:53:08.549Z,23.20
2018-06-03T18:55:36.993Z,23.10
2018-06-03T18:58:05.428Z,23.10
2018-06-03T19:03:02.355Z,23.00
2018-06-03T19:05:30.773Z,22.90
2018-06-03T19:07:59.292Z,22.80
2018-06-03T19:10:27.842Z,22.80
2018-06-03T19:12:56.281Z,22.70
2018-06-03T19:15:24.834Z,22.60
2018-06-03T19:17:53.337Z,22.50
2018-06-03T19:20:22.171Z,22.40
2018-06-03T19:22:50.649Z,22.30
2018-06-03T19:25:19.065Z,22.30
2018-06-03T19:27:47.693Z,22.10
2018-06-03T19:30:16.306Z,22.00
2018-06-03T19:32:44.737Z,21.90
2018-06-03T19:35:13.177Z,21.80
2018-06-03T19:37:41.996Z,21.70
2018-06-03T19:40:10.556Z,21.60
2018-06-03T19:42:38.952Z,21.50
2018-06-03T19:45:07.569Z,21.30
2018-06-03T19:47:35.986Z,21.30
2018-06-03T19:50:04.458Z,21.20
2018-06-03T19:52:32.929Z,21.10
2018-06-03T19:57:29.555Z,20.90
2018-06-03T19:59:58.034Z,20.80
2018-06-03T20:02:26.426Z,20.70
2018-06-03T20:04:55.177Z,20.60
2018-06-03T20:07:23.609Z,20.50
2018-06-03T20:09:51.997Z,20.50
2018-06-03T20:12:20.508Z,20.40
2018-06-03T20:14:48.967Z,20.30
2018-06-03T20:17:17.369Z,20.30
2018-06-03T20:19:45.789Z,20.20
2018-06-03T20:22:14.212Z,20.00
2018-06-03T20:24:42.703Z,20.00
2018-06-03T20:27:11.337Z,19.90
2018-06-03T20:32:08.127Z,19.80
2018-06-03T20:34:36.645Z,19.80
2018-06-03T20:37:05.045Z,19.70
2018-06-03T20:39:33.552Z,19.60
2018-06-03T20:42:02.070Z,19.60
2018-06-03T20:44:30.458Z,19.60
2018-06-03T20:46:59.033Z,19.60
2018-06-03T20:49:27.486Z,19.60
2018-06-03T20:51:55.885Z,19.60
2018-06-03T20:54:24.276Z,19.60
2018-06-03T20:56:52.968Z,19.50
2018-06-03T20:59:21.399Z,19.50
2018-06-03T21:01:49.800Z,19.40
2018-06-03T21:04:18.220Z,19.30
2018-06-03T21:06:46.746Z,19.20
2018-06-03T21:09:15.255Z,19.10
2018-06-03T21:11:43.856Z,19.10
2018-06-03T21:14:12.549Z,19.00
2018-06-03T21:16:41.060Z,19.00
2018-06-03T21:19:09.465Z,19.00
2018-06-03T21:21:38.033Z,19.00
2018-06-03T21:24:06.467Z,19.00
2018-06-03T21:26:34.884Z,18.90
2018-06-03T21:29:03.285Z,18.90
2018-06-03T21:31:31.909Z,18.90
2018-06-03T21:34:01.405Z,19.00
2018-06-03T21:36:29.816Z,19.00
2018-06-03T21:38:58.247Z,19.00
2018-06-03T21:41:26.717Z,18.90
2018-06-03T21:43:55.123Z,18.80
2018-06-03T21:46:23.544Z,18.70
2018-06-03T21:48:52.018Z,18.50
2018-06-03T21:51:20.425Z,18.40
2018-06-03T21:53:48.848Z,18.40
2018-06-03T21:56:18.251Z,18.30
2018-06-03T21:58:46.634Z,18.20
2018-06-03T22:03:43.458Z,18.20
2018-06-03T22:06:12.038Z,18.10
2018-06-03T22:08:40.767Z,18.00
2018-06-03T22:11:09.178Z,18.00
2018-06-03T22:13:37.560Z,17.90
2018-06-03T22:16:05.993Z,17.90
2018-06-03T22:18:34.452Z,17.80
2018-06-03T22:21:02.861Z,17.80
2018-06-03T22:23:31.524Z,17.90
2018-06-03T22:25:59.909Z,17.90
2018-06-03T22:28:28.361Z,17.90
2018-06-03T22:30:56.967Z,18.00
2018-06-03T22:33:25.451Z,18.00
2018-06-03T22:35:53.946Z,17.90
2018-06-03T22:38:22.560Z,17.80
2018-06-03T22:40:50.940Z,17.70
2018-06-03T22:43:19.404Z,17.70
2018-06-03T22:45:48.057Z,17.70
2018-06-03T22:48:16.450Z,17.70
2018-06-03T22:50:44.842Z,17.70
2018-06-03T22:53:13.489Z,17.60
2018-06-03T22:55:41.981Z,17.50
2018-06-03T22:58:10.404Z,17.40
2018-06-03T23:00:39.249Z,17.40
2018-06-03T23:03:12.995Z,17.40
2018-06-03T23:05:41.629Z,17.40
2018-06-03T23:08:10.009Z,17.40
2018-06-03T23:10:38.449Z,17.40
2018-06-03T23:13:07.218Z,17.40
2018-06-03T23:15:35.649Z,17.40
2018-06-03T23:18:04.057Z,17.50
2018-06-03T23:20:32.649Z,17.50
2018-06-03T23:23:01.045Z,17.40
2018-06-03T23:25:29.434Z,17.40
2018-06-03T23:27:58.006Z,17.30
2018-06-03T23:30:26.484Z,17.30
2018-06-03T23:32:54.858Z,17.20
2018-06-03T23:35:23.264Z,17.20
2018-06-03T23:37:51.742Z,17.10
2018-06-03T23:40:20.390Z,17.00
2018-06-03T23:42:48.789Z,16.90
2018-06-03T23:45:17.192Z,16.90
2018-06-03T23:47:45.987Z,16.80
2018-06-03T23:50:14.383Z,16.80
2018-06-03T23:52:42.735Z,16.70
2018-06-03T23:55:11.152Z,16.70
2018-06-03T23:57:39.650Z,16.70
